createdAt,value
2018-08-30T00:02:25.585Z,14.37
2018-08-30T00:04:53.710Z,15.33
2018-08-30T00:07:21.902Z,14.97
2018-08-30T00:09:50.028Z,15.83
2018-08-30T00:12:18.628Z,15.20
2018-08-30T00:14:46.781Z,15.07
2018-08-30T00:17:14.926Z,16.87
2018-08-30T00:19:43.057Z,16.20
2018-08-30T00:22:11.200Z,16.23
2018-08-30T00:24:39.325Z,18.03
2018-08-30T00:27:07.585Z,17.33
2018-08-30T00:29:36.449Z,17.50
2018-08-30T00:32:04.589Z,16.57
2018-08-30T00:34:32.714Z,17.33
2018-08-30T00:37:00.857Z,16.27
2018-08-30T00:39:28.999Z,15.70
2018-08-30T00:41:57.146Z,16.60
2018-08-30T00:44:25.282Z,17.90
2018-08-30T00:46:53.412Z,17.70
2018-08-30T00:49:21.540Z,17.00
2018-08-30T00:51:49.690Z,18.13
2018-08-30T00:54:17.837Z,17.23
2018-08-30T00:56:45.982Z,15.90
2018-08-30T00:59:14.122Z,15.20
2018-08-30T01:01:42.241Z,15.57
2018-08-30T01:04:10.709Z,17.23
2018-08-30T01:06:38.825Z,17.40
2018-08-30T01:09:07.033Z,17.37
2018-08-30T01:11:35.149Z,18.60
2018-08-30T01:14:03.268Z,17.90
2018-08-30T01:16:32.539Z,15.53
2018-08-30T01:19:00.675Z,18.33
2018-08-30T01:21:28.805Z,18.00
2018-08-30T01:23:56.942Z,18.10
2018-08-30T01:26:25.095Z,18.30
2018-08-30T01:28:53.229Z,18.80
2018-08-30T01:31:21.346Z,18.10
2018-08-30T01:33:49.474Z,18.90
2018-08-30T01:36:17.586Z,20.40
2018-08-30T01:38:45.713Z,19.00
2018-08-30T01:41:13.842Z,18.57
2018-08-30T01:43:41.969Z,18.63
2018-08-30T01:46:10.902Z,21.47
2018-08-30T01:48:39.033Z,21.40
2018-08-30T01:51:07.153Z,21.73
2018-08-30T01:53:35.277Z,22.20
2018-08-30T01:56:03.389Z,24.30
2018-08-30T01:58:31.504Z,24.03
2018-08-30T02:00:59.626Z,25.97
2018-08-30T02:03:27.790Z,27.57
2018-08-30T02:05:55.912Z,28.40
2018-08-30T02:08:24.046Z,28.00
2018-08-30T02:10:52.857Z,29.33
2018-08-30T02:13:20.972Z,28.97
2018-08-30T02:15:49.137Z,31.03
2018-08-30T02:18:17.258Z,29.73
2018-08-30T02:20:45.382Z,30.03
2018-08-30T02:23:13.522Z,33.03
2018-08-30T02:25:41.637Z,34.93
2018-08-30T02:28:09.746Z,34.97
2018-08-30T02:30:37.865Z,37.00
2018-08-30T02:33:06.013Z,40.43
2018-08-30T02:35:34.137Z,37.70
2018-08-30T02:38:02.245Z,40.90
2018-08-30T02:40:30.378Z,42.20
2018-08-30T02:42:58.491Z,43.70
2018-08-30T02:45:26.619Z,45.63
2018-08-30T02:47:54.724Z,48.57
2018-08-30T02:50:22.860Z,53.47
2018-08-30T02:52:50.964Z,48.80
2018-08-30T02:55:19.088Z,46.77
2018-08-30T02:57:47.210Z,51.37
2018-08-30T03:00:17.497Z,52.90
2018-08-30T03:02:45.617Z,51.57
2018-08-30T03:05:13.766Z,59.43
2018-08-30T03:07:41.882Z,52.10
2018-08-30T03:10:10.048Z,57.47
2018-08-30T03:12:38.145Z,60.43
2018-08-30T03:15:09.292Z,62.23
2018-08-30T03:17:37.426Z,52.90
2018-08-30T03:20:07.372Z,57.57
2018-08-30T03:22:36.156Z,45.87
2018-08-30T03:25:04.446Z,47.63
2018-08-30T03:27:32.593Z,54.27
2018-08-30T03:30:00.846Z,45.93
2018-08-30T03:32:28.973Z,46.60
2018-08-30T03:34:57.349Z,45.33
2018-08-30T03:37:25.465Z,44.97
2018-08-30T03:39:53.596Z,46.60
2018-08-30T03:42:21.724Z,45.93
2018-08-30T03:44:49.888Z,53.27
2018-08-30T03:47:17.993Z,48.83
2018-08-30T03:49:46.136Z,51.63
2018-08-30T03:52:14.254Z,53.17
2018-08-30T03:54:42.373Z,54.80
2018-08-30T03:57:10.503Z,52.50
2018-08-30T03:59:38.637Z,52.50
2018-08-30T04:02:06.763Z,48.13
2018-08-30T04:04:34.873Z,51.10
2018-08-30T04:07:03.034Z,46.23
2018-08-30T04:09:31.173Z,45.50
2018-08-30T04:11:59.318Z,46.27
2018-08-30T04:14:27.457Z,45.77
2018-08-30T04:16:55.640Z,46.67
2018-08-30T04:19:23.775Z,50.03
2018-08-30T04:21:52.015Z,55.20
2018-08-30T04:24:20.140Z,42.67
2018-08-30T04:26:48.290Z,45.90
2018-08-30T04:29:17.084Z,49.80
2018-08-30T04:31:45.253Z,52.97
2018-08-30T04:34:13.401Z,52.57
2018-08-30T04:36:41.561Z,46.90
2018-08-30T04:39:09.713Z,49.50
2018-08-30T04:41:37.969Z,50.43
2018-08-30T04:44:06.203Z,47.90
2018-08-30T04:46:34.394Z,49.20
2018-08-30T04:49:02.550Z,45.37
2018-08-30T04:51:30.845Z,49.73
2018-08-30T04:53:59.009Z,47.27
2018-08-30T04:56:27.161Z,45.93
2018-08-30T04:58:55.316Z,51.67
2018-08-30T05:01:23.584Z,52.33
2018-08-30T05:03:51.805Z,42.63
2018-08-30T05:06:19.997Z,30.83
2018-08-30T05:08:48.138Z,25.20
2018-08-30T05:11:16.309Z,21.57
2018-08-30T05:13:51.330Z,18.50
2018-08-30T05:16:19.629Z,18.77
2018-08-30T05:18:47.918Z,19.93
2018-08-30T05:21:18.105Z,20.17
2018-08-30T05:23:46.248Z,19.77
2018-08-30T05:26:14.413Z,18.87
2018-08-30T05:28:42.556Z,16.67
2018-08-30T05:31:10.728Z,16.87
2018-08-30T05:33:38.888Z,13.97
2018-08-30T05:36:07.046Z,13.50
2018-08-30T05:38:35.210Z,14.50
2018-08-30T05:41:03.382Z,12.00
2018-08-30T05:43:31.566Z,13.23
2018-08-30T05:45:59.754Z,14.07
2018-08-30T05:48:27.889Z,16.00
2018-08-30T05:50:56.119Z,16.40
2018-08-30T05:53:24.639Z,18.70
2018-08-30T05:55:52.769Z,20.57
2018-08-30T05:58:21.006Z,22.20
2018-08-30T06:00:49.337Z,22.00
2018-08-30T06:03:17.495Z,23.27
2018-08-30T06:05:45.662Z,20.97
2018-08-30T06:08:13.811Z,16.23
2018-08-30T06:10:41.969Z,15.93
2018-08-30T06:13:10.129Z,19.70
2018-08-30T06:15:38.284Z,20.80
2018-08-30T06:18:06.461Z,15.83
2018-08-30T06:20:34.615Z,13.90
2018-08-30T06:23:02.786Z,13.50
2018-08-30T06:25:30.929Z,10.90
2018-08-30T06:27:59.074Z,9.20
2018-08-30T06:30:27.232Z,9.20
2018-08-30T06:32:55.484Z,7.17
2018-08-30T06:35:23.509Z,6.30
2018-08-30T06:37:51.661Z,7.60
2018-08-30T06:40:19.863Z,6.50
2018-08-30T06:42:48.011Z,5.37
2018-08-30T06:45:16.137Z,6.70
2018-08-30T06:47:44.297Z,4.70
2018-08-30T06:50:13.428Z,4.80
2018-08-30T06:52:41.576Z,5.20
2018-08-30T06:55:09.762Z,3.90
2018-08-30T06:57:37.904Z,4.30
2018-08-30T07:00:06.101Z,4.50
2018-08-30T07:02:34.876Z,4.53
2018-08-30T07:05:06.661Z,5.23
2018-08-30T07:07:34.830Z,6.33
2018-08-30T07:10:02.974Z,6.30
2018-08-30T07:12:31.132Z,6.27
2018-08-30T07:14:59.297Z,6.60
2018-08-30T07:17:27.489Z,7.77
2018-08-30T07:19:55.634Z,7.50
2018-08-30T07:22:23.798Z,7.30
2018-08-30T07:24:53.045Z,7.97
2018-08-30T07:27:21.534Z,5.90
2018-08-30T07:29:49.731Z,5.70
2018-08-30T07:32:17.975Z,5.80
2018-08-30T07:34:46.303Z,6.53
2018-08-30T07:37:14.758Z,5.77
2018-08-30T07:39:42.941Z,5.87
2018-08-30T07:42:11.418Z,7.43
2018-08-30T07:44:39.667Z,6.97
2018-08-30T07:47:07.839Z,6.97
2018-08-30T07:49:35.962Z,8.70
2018-08-30T07:52:04.115Z,7.50
2018-08-30T07:54:32.304Z,8.20
2018-08-30T07:57:00.458Z,7.07
2018-08-30T07:59:28.682Z,8.37
2018-08-30T08:01:56.822Z,8.50
2018-08-30T08:04:24.987Z,12.33
2018-08-30T08:06:53.129Z,15.73
2018-08-30T08:09:21.592Z,18.30
2018-08-30T08:11:49.852Z,21.27
2018-08-30T08:14:17.982Z,20.90
2018-08-30T08:16:46.133Z,21.80
2018-08-30T08:19:17.807Z,19.43
2018-08-30T08:21:45.954Z,21.07
2018-08-30T08:24:14.106Z,20.50
2018-08-30T08:26:42.228Z,20.10
2018-08-30T08:29:10.400Z,15.80
2018-08-30T08:31:38.541Z,17.40
2018-08-30T08:34:07.299Z,17.00
2018-08-30T08:36:35.463Z,18.03
2018-08-30T08:39:04.528Z,18.20
2018-08-30T08:41:32.670Z,21.00
2018-08-30T08:44:00.814Z,23.83
2018-08-30T08:46:28.969Z,24.17
2018-08-30T08:48:57.145Z,24.10
2018-08-30T08:51:25.286Z,27.50
2018-08-30T08:53:53.520Z,29.10
2018-08-30T08:56:23.354Z,30.40
2018-08-30T08:58:51.542Z,30.23
2018-08-30T09:01:19.730Z,29.87
2018-08-30T09:03:47.825Z,33.80
2018-08-30T09:06:15.980Z,29.87
2018-08-30T09:08:44.122Z,28.37
2018-08-30T09:11:12.291Z,29.60
2018-08-30T09:13:40.438Z,28.30
2018-08-30T09:16:08.675Z,30.33
2018-08-30T09:18:36.861Z,27.70
2018-08-30T09:21:08.514Z,26.47
2018-08-30T09:23:36.730Z,26.47
2018-08-30T09:26:04.920Z,29.00
2018-08-30T09:28:33.071Z,30.00
2018-08-30T09:31:01.290Z,30.90
2018-08-30T09:33:29.368Z,31.63
2018-08-30T09:35:57.537Z,34.03
2018-08-30T09:38:25.702Z,32.53
2018-08-30T09:40:56.897Z,33.60
2018-08-30T09:43:25.062Z,32.30
2018-08-30T09:45:53.222Z,30.20
2018-08-30T09:48:21.406Z,30.37
2018-08-30T09:50:49.554Z,29.20
2018-08-30T09:53:17.693Z,32.17
2018-08-30T09:55:46.684Z,30.93
2018-08-30T09:58:14.775Z,30.20
2018-08-30T10:00:48.860Z,31.27
2018-08-30T10:03:17.032Z,30.50
2018-08-30T10:05:45.224Z,30.47
2018-08-30T10:08:13.382Z,31.87
2018-08-30T10:10:41.590Z,30.10
2018-08-30T10:13:09.825Z,30.93
2018-08-30T10:15:38.017Z,36.70
2018-08-30T10:18:06.477Z,33.63
2018-08-30T10:20:35.085Z,32.93
2018-08-30T10:23:03.306Z,30.63
2018-08-30T10:25:31.563Z,30.30
2018-08-30T10:27:59.722Z,32.27
2018-08-30T10:30:27.902Z,33.30
2018-08-30T10:32:56.094Z,32.73
2018-08-30T10:35:24.879Z,30.87
2018-08-30T10:37:53.066Z,31.70
2018-08-30T10:40:21.287Z,30.17
2018-08-30T10:42:49.536Z,33.00
2018-08-30T10:45:18.320Z,33.00
2018-08-30T10:47:46.538Z,34.17
2018-08-30T10:50:14.758Z,31.97
2018-08-30T10:52:42.954Z,33.10
2018-08-30T10:55:11.169Z,33.40
2018-08-30T10:57:39.345Z,32.20
2018-08-30T11:00:07.571Z,32.57
2018-08-30T11:02:35.775Z,30.93
2018-08-30T11:05:04.053Z,32.03
2018-08-30T11:07:32.248Z,30.83
2018-08-30T11:10:00.583Z,30.80
2018-08-30T11:12:28.746Z,31.17
2018-08-30T11:14:56.942Z,30.83
2018-08-30T11:17:25.500Z,31.00
2018-08-30T11:19:53.640Z,30.00
2018-08-30T11:22:21.902Z,28.57
2018-08-30T11:24:50.058Z,26.80
2018-08-30T11:27:18.237Z,27.30
2018-08-30T11:29:46.396Z,30.63
2018-08-30T11:32:14.584Z,28.70
2018-08-30T11:34:42.858Z,28.23
2018-08-30T11:37:11.090Z,30.07
2018-08-30T11:39:39.252Z,31.13
2018-08-30T11:42:07.419Z,29.10
2018-08-30T11:44:35.584Z,28.47
2018-08-30T11:47:03.761Z,29.33
2018-08-30T11:49:31.929Z,28.90
2018-08-30T11:52:00.122Z,28.13
2018-08-30T11:54:28.288Z,27.53
2018-08-30T11:56:56.460Z,25.60
2018-08-30T11:59:24.638Z,26.90
2018-08-30T12:01:52.818Z,27.93
2018-08-30T12:04:21.962Z,27.37
2018-08-30T12:06:50.191Z,29.00
2018-08-30T12:09:18.338Z,31.03
2018-08-30T12:11:46.494Z,27.63
2018-08-30T12:14:14.633Z,28.47
2018-08-30T12:16:42.789Z,27.50
2018-08-30T12:19:10.941Z,26.20
2018-08-30T12:21:39.093Z,26.10
2018-08-30T12:24:07.230Z,23.87
2018-08-30T12:26:35.399Z,24.60
2018-08-30T12:29:03.573Z,26.13
2018-08-30T12:31:31.737Z,25.10
2018-08-30T12:33:59.933Z,23.90
2018-08-30T12:36:28.001Z,23.47
2018-08-30T12:38:56.191Z,23.10
2018-08-30T12:41:24.294Z,20.53
2018-08-30T12:43:52.598Z,19.90
2018-08-30T12:46:20.620Z,18.37
2018-08-30T12:48:48.782Z,19.07
2018-08-30T12:51:17.172Z,18.50
2018-08-30T12:53:45.206Z,19.50
2018-08-30T12:56:13.458Z,20.07
2018-08-30T12:58:41.578Z,17.60
2018-08-30T13:01:09.819Z,17.00
2018-08-30T13:03:37.941Z,17.50
2018-08-30T13:06:06.195Z,17.93
2018-08-30T13:08:34.434Z,16.97
2018-08-30T13:11:02.574Z,18.37
2018-08-30T13:13:30.546Z,16.37
2018-08-30T13:15:58.744Z,17.07
2018-08-30T13:18:26.880Z,17.77
2018-08-30T13:20:55.128Z,16.57
2018-08-30T13:23:23.218Z,15.97
2018-08-30T13:25:51.472Z,15.13
2018-08-30T13:28:19.651Z,14.83
2018-08-30T13:30:47.872Z,15.30
2018-08-30T13:33:19.903Z,14.87
2018-08-30T13:35:43.935Z,14.10
2018-08-30T13:38:12.245Z,14.37
2018-08-30T13:40:40.585Z,15.00
2018-08-30T13:43:08.546Z,15.47
2018-08-30T13:45:36.706Z,15.00
2018-08-30T13:48:05.883Z,14.87
2018-08-30T13:50:33.878Z,15.53
2018-08-30T13:53:02.105Z,14.37
2018-08-30T13:55:30.387Z,14.03
2018-08-30T13:57:58.730Z,12.80
2018-08-30T14:00:26.979Z,11.13
2018-08-30T14:02:54.712Z,11.93
2018-08-30T14:05:22.845Z,11.93
2018-08-30T14:07:50.988Z,12.53
2018-08-30T14:10:19.433Z,12.50
2018-08-30T14:12:47.526Z,11.00
2018-08-30T14:15:15.939Z,10.23
2018-08-30T14:17:43.657Z,10.00
2018-08-30T14:20:11.812Z,10.23
2018-08-30T14:22:39.986Z,10.27
2018-08-30T14:25:11.298Z,10.20
2018-08-30T14:27:39.428Z,10.00
2018-08-30T14:30:07.593Z,10.10
2018-08-30T14:32:36.694Z,11.37
2018-08-30T14:35:05.330Z,10.00
2018-08-30T14:37:33.462Z,10.43
2018-08-30T14:40:01.602Z,10.47
2018-08-30T14:42:30.797Z,9.07
2018-08-30T14:44:58.981Z,9.37
2018-08-30T14:47:27.306Z,9.37
2018-08-30T14:49:55.265Z,9.13
2018-08-30T14:52:23.413Z,8.90
2018-08-30T14:54:51.561Z,9.13
2018-08-30T14:57:19.708Z,8.93
2018-08-30T14:59:48.221Z,9.93
2018-08-30T15:02:16.363Z,8.90
2018-08-30T15:04:44.529Z,8.73
2018-08-30T15:07:13.008Z,10.10
2018-08-30T15:09:41.165Z,10.87
2018-08-30T15:12:09.319Z,11.60
2018-08-30T15:14:37.481Z,11.63
2018-08-30T15:17:05.667Z,11.90
2018-08-30T15:19:33.773Z,9.33
2018-08-30T15:22:01.917Z,10.00
2018-08-30T15:24:30.061Z,10.30
2018-08-30T15:26:58.306Z,10.47
2018-08-30T15:29:26.423Z,9.60
2018-08-30T15:31:54.530Z,9.00
2018-08-30T15:34:22.683Z,9.20
2018-08-30T15:36:50.950Z,9.37
2018-08-30T15:39:19.180Z,9.70
2018-08-30T15:41:47.310Z,8.70
2018-08-30T15:44:16.122Z,8.87
2018-08-30T15:46:44.264Z,8.20
2018-08-30T15:49:12.405Z,9.67
2018-08-30T15:51:40.548Z,9.80
2018-08-30T15:54:08.724Z,9.03
2018-08-30T15:56:36.870Z,9.27
2018-08-30T15:59:05.045Z,9.40
2018-08-30T16:01:33.203Z,9.43
2018-08-30T16:04:01.381Z,9.80
2018-08-30T16:06:29.546Z,9.90
2018-08-30T16:08:58.246Z,10.77
2018-08-30T16:11:27.482Z,9.90
2018-08-30T16:13:55.676Z,9.70
2018-08-30T16:16:23.849Z,10.07
2018-08-30T16:18:52.191Z,8.37
2018-08-30T16:21:20.197Z,9.80
2018-08-30T16:23:49.307Z,8.33
2018-08-30T16:26:17.540Z,8.47
2018-08-30T16:28:45.676Z,8.80
2018-08-30T16:31:13.873Z,8.60
2018-08-30T16:33:41.989Z,8.27
2018-08-30T16:36:10.169Z,7.57
2018-08-30T16:38:38.336Z,7.73
2018-08-30T16:41:06.704Z,7.63
2018-08-30T16:43:34.833Z,7.10
2018-08-30T16:46:02.985Z,8.47
2018-08-30T16:48:31.662Z,7.30
2018-08-30T16:50:59.856Z,8.60
2018-08-30T16:53:28.169Z,7.17
2018-08-30T16:55:56.352Z,7.87
2018-08-30T16:58:24.510Z,8.10
2018-08-30T17:00:52.665Z,7.97
2018-08-30T17:03:20.818Z,7.00
2018-08-30T17:05:49.039Z,7.30
2018-08-30T17:08:17.189Z,6.80
2018-08-30T17:10:45.417Z,7.50
2018-08-30T17:13:13.561Z,6.90
2018-08-30T17:15:41.799Z,7.40
2018-08-30T17:18:10.011Z,8.07
2018-08-30T17:20:40.968Z,8.07
2018-08-30T17:23:09.473Z,8.23
2018-08-30T17:25:37.727Z,7.70
2018-08-30T17:28:05.989Z,8.00
2018-08-30T17:30:36.221Z,7.60
2018-08-30T17:33:04.482Z,8.10
2018-08-30T17:35:33.654Z,8.57
2018-08-30T17:38:01.873Z,8.70
2018-08-30T17:40:30.088Z,8.30
2018-08-30T17:42:58.254Z,9.17
2018-08-30T17:45:26.489Z,9.37
2018-08-30T17:47:54.603Z,8.20
2018-08-30T17:50:22.762Z,8.90
2018-08-30T17:52:51.033Z,8.17
2018-08-30T17:55:19.422Z,9.03
2018-08-30T17:57:47.653Z,8.20
2018-08-30T18:00:16.042Z,8.47
2018-08-30T18:02:45.169Z,7.13
2018-08-30T18:05:13.970Z,8.70
2018-08-30T18:07:42.134Z,8.70
2018-08-30T18:10:10.525Z,7.53
2018-08-30T18:12:39.301Z,9.40
2018-08-30T18:15:09.204Z,10.27
2018-08-30T18:17:37.440Z,11.03
2018-08-30T18:20:06.044Z,9.80
2018-08-30T18:22:34.349Z,9.97
2018-08-30T18:25:02.574Z,10.43
2018-08-30T18:27:31.213Z,9.20
2018-08-30T18:30:05.058Z,9.97
2018-08-30T18:32:38.523Z,9.30
2018-08-30T18:35:08.545Z,9.00
2018-08-30T18:37:41.504Z,9.87
2018-08-30T18:40:16.783Z,8.40
2018-08-30T18:42:47.947Z,10.23
2018-08-30T18:45:16.351Z,9.60
2018-08-30T18:47:45.019Z,10.53
2018-08-30T18:50:17.583Z,10.50
2018-08-30T18:52:48.864Z,10.70
2018-08-30T18:55:17.314Z,10.70
2018-08-30T18:57:51.622Z,11.13
2018-08-30T19:00:20.568Z,11.53
2018-08-30T19:02:49.215Z,11.93
2018-08-30T19:05:18.774Z,11.20
2018-08-30T19:07:51.919Z,15.90
2018-08-30T19:10:22.108Z,14.10
2018-08-30T19:12:50.742Z,16.37
2018-08-30T19:15:24.551Z,15.60
2018-08-30T19:17:58.449Z,16.17
2018-08-30T19:20:30.333Z,14.77
2018-08-30T19:23:02.425Z,13.93
2018-08-30T19:25:37.003Z,12.10
2018-08-30T19:28:10.347Z,12.07
2018-08-30T19:30:38.835Z,13.73
2018-08-30T19:33:08.469Z,13.57
2018-08-30T19:35:42.718Z,13.17
2018-08-30T19:38:14.899Z,13.30
2018-08-30T19:40:49.651Z,13.77
2018-08-30T19:43:18.621Z,13.90
2018-08-30T19:45:50.543Z,13.07
2018-08-30T19:48:20.630Z,15.30
2018-08-30T19:50:49.864Z,14.73
2018-08-30T19:53:19.150Z,13.30
2018-08-30T19:55:47.454Z,14.70
2018-08-30T19:58:15.738Z,12.60
2018-08-30T20:00:45.758Z,13.90
2018-08-30T20:03:14.208Z,12.07
2018-08-30T20:05:42.707Z,11.47
2018-08-30T20:08:10.969Z,12.27
2018-08-30T20:10:44.161Z,10.23
2018-08-30T20:13:14.077Z,12.50
2018-08-30T20:15:49.033Z,13.40
2018-08-30T20:18:19.530Z,13.07
2018-08-30T20:20:53.970Z,12.77
2018-08-30T20:23:23.689Z,14.00
2018-08-30T20:25:53.808Z,14.50
2018-08-30T20:28:22.018Z,13.70
2018-08-30T20:30:50.229Z,14.40
2018-08-30T20:33:18.782Z,10.93
2018-08-30T20:35:46.960Z,11.27
2018-08-30T20:38:15.166Z,10.47
2018-08-30T20:40:43.439Z,10.10
2018-08-30T20:43:11.685Z,10.33
2018-08-30T20:45:40.100Z,9.87
2018-08-30T20:48:08.272Z,7.60
2018-08-30T20:50:37.125Z,7.20
2018-08-30T20:53:05.447Z,7.20
2018-08-30T20:55:35.035Z,8.23
2018-08-30T20:58:03.332Z,6.43
2018-08-30T21:00:33.200Z,5.67
2018-08-30T21:03:02.034Z,6.90
2018-08-30T21:05:30.455Z,4.80
2018-08-30T21:07:58.643Z,5.30
2018-08-30T21:10:26.933Z,4.47
2018-08-30T21:12:55.905Z,5.00
2018-08-30T21:15:29.148Z,4.03
2018-08-30T21:18:00.359Z,4.20
2018-08-30T21:20:46.169Z,4.27
2018-08-30T21:23:26.640Z,3.87
2018-08-30T21:32:20.485Z,4.23
2018-08-30T21:35:07.914Z,4.40
2018-08-30T21:40:44.962Z,4.33
2018-08-30T21:43:54.836Z,4.73
2018-08-30T21:46:39.187Z,4.80
2018-08-30T22:05:28.910Z,5.40
2018-08-30T22:50:50.454Z,3.90
2018-08-30T22:53:18.659Z,3.70
2018-08-30T22:55:46.871Z,3.67
2018-08-30T22:58:15.080Z,4.20
2018-08-30T23:00:43.270Z,3.20
2018-08-30T23:03:11.470Z,3.33
2018-08-30T23:05:39.671Z,3.80
2018-08-30T23:08:07.876Z,3.60
2018-08-30T23:10:36.745Z,4.20
2018-08-30T23:13:06.998Z,3.30
2018-08-30T23:15:35.177Z,3.50
2018-08-30T23:18:03.357Z,3.53
2018-08-30T23:20:31.552Z,3.63
2018-08-30T23:23:00.357Z,3.17
2018-08-30T23:25:28.570Z,3.47
2018-08-30T23:27:56.750Z,3.60
2018-08-30T23:30:25.016Z,3.67
2018-08-30T23:32:53.122Z,3.10
2018-08-30T23:35:21.310Z,3.93
2018-08-30T23:37:49.500Z,3.93
2018-08-30T23:40:17.690Z,3.63
2018-08-30T23:42:45.869Z,3.40
2018-08-30T23:45:14.058Z,3.57
2018-08-30T23:47:42.221Z,3.57
2018-08-30T23:50:10.402Z,3.63
2018-08-30T23:52:41.568Z,3.00
2018-08-30T23:55:09.734Z,3.03
2018-08-30T23:57:43.438Z,3.77
